Redwood City, CA (94065)

6:09 PM PDT on July 27, 2016 (GMT -0700)
Redwood Shores | | Change Station

Elev 5 ft 37.53 °N, 122.25 °W | Updated 2 seconds ago

Scattered Clouds
Scattered Clouds
76.1 °F
Feels Like 78 °F
N
7.4
Wind Variable Wind from SSE
Gusts 9.8 mph

Today
High -- | Low -- °F
--% Chance of Precip.
Yesterday
High -- | Low -- °F
Precip. -- in
Pressure 29.86 in
Visibility 10.0 miles
Clouds Scattered Clouds 20000 ft
Heat Index 78 °F
Dew Point 57 °F
Humidity 52%
Rainfall 0.00 in
Snow Depth Not available.
6:09 AM 8:21 PM
Last Quarter, 38% visible
METAR KSQL 280050Z 32007KT 10SM SCT200 25/12 A2986
Pressure 29.86 in
Visibility 10.0 miles
Clouds Scattered Clouds 20000 ft
Heat Index 78 °F
Dew Point 57 °F
Humidity 52%
Rainfall 0.00 in
Snow Depth Not available.
6:09 AM 8:21 PM
Last Quarter, 38% visible
METAR KSQL 280050Z 32007KT 10SM SCT200 25/12 A2986

10-Day Weather Forecast

Almanac

Astronomy

Jul. 27, 2016 Rise Set
Actual Time
Civil Twilight
Nautical Twilight
Astronomical Twilight
Moon
Length of Visible Light
Length of Day
Tomorrow will be .
, % of the Moon is Illuminated

Today's Extremes

State Highs State Lows

Community

WunderPhotos

Upload Photos

1,927,987 photos uploaded!

WunderBlog® & News

Nearby

Air Quality

  Air Quality AQ Index Pollutant
Not available.

Snow Depth

Station Depth Elevation

Earthquake Activity

City Distance Mag. Time & Date
Minimum magnitude displayed is 2.5.

Coastal Water Temperatures

Place Temperature

Stations

Nearby Weather Stations

Station Location Temp. Windchill Dew Point Humidity Wind Precip. Elev Updated Type
                   

Watches & Warnings

There are currently no watches in effect.